sensor_id;sensor_type;location;lat;lon;timestamp;P1;durP1;ratioP1;P2;durP2;ratioP2
15116;SDS011;7659;51.038;13.786;2022-09-17T00:00:45;0.20;;;0.20;;
15116;SDS011;7659;51.038;13.786;2022-09-17T00:03:12;0.10;;;0.10;;
15116;SDS011;7659;51.038;13.786;2022-09-17T00:05:37;0.20;;;0.20;;
15116;SDS011;7659;51.038;13.786;2022-09-17T00:08:04;0.10;;;0.10;;
15116;SDS011;7659;51.038;13.786;2022-09-17T00:10:30;0.20;;;0.20;;
15116;SDS011;7659;51.038;13.786;2022-09-17T00:12:56;0.20;;;0.20;;
15116;SDS011;7659;51.038;13.786;2022-09-17T00:15:22;0.20;;;0.20;;
15116;SDS011;7659;51.038;13.786;2022-09-17T00:17:52;0.20;;;0.20;;
15116;SDS011;7659;51.038;13.786;2022-09-17T00:20:18;0.20;;;0.20;;
15116;SDS011;7659;51.038;13.786;2022-09-17T00:22:44;0.20;;;0.20;;
15116;SDS011;7659;51.038;13.786;2022-09-17T00:25:09;0.10;;;0.10;;
15116;SDS011;7659;51.038;13.786;2022-09-17T00:27:35;0.23;;;0.23;;
15116;SDS011;7659;51.038;13.786;2022-09-17T00:30:01;0.10;;;0.10;;
15116;SDS011;7659;51.038;13.786;2022-09-17T00:32:26;0.20;;;0.20;;
15116;SDS011;7659;51.038;13.786;2022-09-17T00:34:52;0.20;;;0.20;;
15116;SDS011;7659;51.038;13.786;2022-09-17T00:37:18;0.20;;;0.20;;
15116;SDS011;7659;51.038;13.786;2022-09-17T00:39:44;0.20;;;0.20;;
15116;SDS011;7659;51.038;13.786;2022-09-17T00:42:10;0.20;;;0.20;;
15116;SDS011;7659;51.038;13.786;2022-09-17T00:50:09;0.20;;;0.20;;
15116;SDS011;7659;51.038;13.786;2022-09-17T00:53:20;0.20;;;0.20;;
15116;SDS011;7659;51.038;13.786;2022-09-17T00:55:32;0.20;;;0.20;;
15116;SDS011;7659;51.038;13.786;2022-09-17T00:58:02;0.20;;;0.20;;
15116;SDS011;7659;51.038;13.786;2022-09-17T01:00:30;0.20;;;0.20;;
15116;SDS011;7659;51.038;13.786;2022-09-17T01:02:56;0.20;;;0.20;;
15116;SDS011;7659;51.038;13.786;2022-09-17T01:05:45;0.30;;;0.30;;
15116;SDS011;7659;51.038;13.786;2022-09-17T01:11:17;0.20;;;0.20;;
15116;SDS011;7659;51.038;13.786;2022-09-17T01:13:54;0.10;;;0.10;;
15116;SDS011;7659;51.038;13.786;2022-09-17T01:30:18;0.20;;;0.20;;
15116;SDS011;7659;51.038;13.786;2022-09-17T01:43:27;0.10;;;0.10;;
15116;SDS011;7659;51.038;13.786;2022-09-17T01:45:58;0.20;;;0.20;;
15116;SDS011;7659;51.038;13.786;2022-09-17T01:48:30;0.20;;;0.20;;
15116;SDS011;7659;51.038;13.786;2022-09-17T01:50:59;0.20;;;0.20;;
15116;SDS011;7659;51.038;13.786;2022-09-17T01:53:37;0.20;;;0.20;;
15116;SDS011;7659;51.038;13.786;2022-09-17T01:56:07;0.20;;;0.20;;
15116;SDS011;7659;51.038;13.786;2022-09-17T01:58:40;0.20;;;0.20;;
15116;SDS011;7659;51.038;13.786;2022-09-17T02:01:10;0.27;;;0.27;;
15116;SDS011;7659;51.038;13.786;2022-09-17T02:03:40;0.30;;;0.30;;
15116;SDS011;7659;51.038;13.786;2022-09-17T02:06:13;0.20;;;0.20;;
15116;SDS011;7659;51.038;13.786;2022-09-17T02:08:50;0.17;;;0.17;;
15116;SDS011;7659;51.038;13.786;2022-09-17T02:11:19;0.20;;;0.20;;
15116;SDS011;7659;51.038;13.786;2022-09-17T02:16:17;0.30;;;0.30;;
15116;SDS011;7659;51.038;13.786;2022-09-17T02:18:52;0.20;;;0.20;;
15116;SDS011;7659;51.038;13.786;2022-09-17T02:23:59;0.10;;;0.10;;
15116;SDS011;7659;51.038;13.786;2022-09-17T02:26:28;0.20;;;0.20;;
15116;SDS011;7659;51.038;13.786;2022-09-17T02:28:55;0.10;;;0.10;;
15116;SDS011;7659;51.038;13.786;2022-09-17T02:31:23;0.30;;;0.30;;
15116;SDS011;7659;51.038;13.786;2022-09-17T02:33:50;0.20;;;0.20;;
15116;SDS011;7659;51.038;13.786;2022-09-17T02:36:18;0.20;;;0.20;;
15116;SDS011;7659;51.038;13.786;2022-09-17T02:38:44;0.30;;;0.30;;
15116;SDS011;7659;51.038;13.786;2022-09-17T02:41:15;0.20;;;0.20;;
15116;SDS011;7659;51.038;13.786;2022-09-17T02:49:15;0.20;;;0.20;;
15116;SDS011;7659;51.038;13.786;2022-09-17T02:58:04;0.23;;;0.23;;
15116;SDS011;7659;51.038;13.786;2022-09-17T03:00:46;0.20;;;0.20;;
15116;SDS011;7659;51.038;13.786;2022-09-17T03:03:17;0.30;;;0.30;;
15116;SDS011;7659;51.038;13.786;2022-09-17T03:05:45;0.27;;;0.27;;
15116;SDS011;7659;51.038;13.786;2022-09-17T03:08:12;0.30;;;0.30;;
15116;SDS011;7659;51.038;13.786;2022-09-17T03:10:38;0.30;;;0.30;;
15116;SDS011;7659;51.038;13.786;2022-09-17T03:13:04;0.30;;;0.30;;
15116;SDS011;7659;51.038;13.786;2022-09-17T03:15:30;0.20;;;0.20;;
15116;SDS011;7659;51.038;13.786;2022-09-17T03:17:56;0.20;;;0.20;;
15116;SDS011;7659;51.038;13.786;2022-09-17T03:20:21;0.20;;;0.20;;
15116;SDS011;7659;51.038;13.786;2022-09-17T03:22:47;0.20;;;0.20;;
15116;SDS011;7659;51.038;13.786;2022-09-17T03:25:13;0.23;;;0.23;;
15116;SDS011;7659;51.038;13.786;2022-09-17T03:27:38;0.20;;;0.20;;
15116;SDS011;7659;51.038;13.786;2022-09-17T03:30:04;0.30;;;0.30;;
15116;SDS011;7659;51.038;13.786;2022-09-17T03:32:31;0.30;;;0.30;;
15116;SDS011;7659;51.038;13.786;2022-09-17T03:34:57;0.30;;;0.30;;
15116;SDS011;7659;51.038;13.786;2022-09-17T03:37:22;0.30;;;0.30;;
15116;SDS011;7659;51.038;13.786;2022-09-17T03:39:48;0.30;;;0.30;;
15116;SDS011;7659;51.038;13.786;2022-09-17T03:42:14;0.20;;;0.20;;
15116;SDS011;7659;51.038;13.786;2022-09-17T03:44:39;0.30;;;0.30;;
15116;SDS011;7659;51.038;13.786;2022-09-17T03:47:05;0.30;;;0.30;;
15116;SDS011;7659;51.038;13.786;2022-09-17T03:49:30;0.30;;;0.30;;
15116;SDS011;7659;51.038;13.786;2022-09-17T03:51:56;0.20;;;0.20;;
15116;SDS011;7659;51.038;13.786;2022-09-17T03:54:22;0.30;;;0.30;;
15116;SDS011;7659;51.038;13.786;2022-09-17T03:56:47;0.20;;;0.20;;
15116;SDS011;7659;51.038;13.786;2022-09-17T03:59:13;0.20;;;0.20;;
15116;SDS011;7659;51.038;13.786;2022-09-17T04:01:38;0.30;;;0.30;;
15116;SDS011;7659;51.038;13.786;2022-09-17T04:04:04;0.20;;;0.20;;
15116;SDS011;7659;51.038;13.786;2022-09-17T04:06:30;0.20;;;0.20;;
15116;SDS011;7659;51.038;13.786;2022-09-17T04:08:55;0.20;;;0.20;;
15116;SDS011;7659;51.038;13.786;2022-09-17T04:11:21;0.30;;;0.30;;
15116;SDS011;7659;51.038;13.786;2022-09-17T04:13:47;0.20;;;0.20;;
15116;SDS011;7659;51.038;13.786;2022-09-17T04:16:13;0.20;;;0.20;;
15116;SDS011;7659;51.038;13.786;2022-09-17T04:18:39;0.30;;;0.30;;
15116;SDS011;7659;51.038;13.786;2022-09-17T04:21:05;0.30;;;0.30;;
15116;SDS011;7659;51.038;13.786;2022-09-17T04:23:30;0.30;;;0.30;;
15116;SDS011;7659;51.038;13.786;2022-09-17T04:25:56;0.20;;;0.20;;
15116;SDS011;7659;51.038;13.786;2022-09-17T04:28:22;0.30;;;0.30;;
15116;SDS011;7659;51.038;13.786;2022-09-17T04:30:48;0.20;;;0.20;;
15116;SDS011;7659;51.038;13.786;2022-09-17T04:33:13;0.20;;;0.20;;
15116;SDS011;7659;51.038;13.786;2022-09-17T04:35:39;0.20;;;0.20;;
15116;SDS011;7659;51.038;13.786;2022-09-17T04:38:06;0.30;;;0.30;;
15116;SDS011;7659;51.038;13.786;2022-09-17T04:40:31;0.30;;;0.30;;
15116;SDS011;7659;51.038;13.786;2022-09-17T04:42:58;0.20;;;0.20;;
15116;SDS011;7659;51.038;13.786;2022-09-17T04:45:24;0.20;;;0.20;;
15116;SDS011;7659;51.038;13.786;2022-09-17T04:47:50;0.20;;;0.20;;
15116;SDS011;7659;51.038;13.786;2022-09-17T04:50:18;0.30;;;0.30;;
15116;SDS011;7659;51.038;13.786;2022-09-17T04:52:44;0.20;;;0.20;;
15116;SDS011;7659;51.038;13.786;2022-09-17T04:55:10;0.30;;;0.30;;
15116;SDS011;7659;51.038;13.786;2022-09-17T04:57:37;0.30;;;0.30;;
15116;SDS011;7659;51.038;13.786;2022-09-17T05:00:04;0.20;;;0.20;;
15116;SDS011;7659;51.038;13.786;2022-09-17T05:02:33;0.27;;;0.27;;
15116;SDS011;7659;51.038;13.786;2022-09-17T05:04:58;0.30;;;0.30;;
15116;SDS011;7659;51.038;13.786;2022-09-17T05:07:24;0.30;;;0.30;;
15116;SDS011;7659;51.038;13.786;2022-09-17T05:09:49;0.20;;;0.20;;
15116;SDS011;7659;51.038;13.786;2022-09-17T05:12:15;0.20;;;0.20;;
15116;SDS011;7659;51.038;13.786;2022-09-17T05:14:40;0.13;;;0.13;;
15116;SDS011;7659;51.038;13.786;2022-09-17T05:17:06;0.23;;;0.23;;
15116;SDS011;7659;51.038;13.786;2022-09-17T05:19:32;0.20;;;0.20;;
15116;SDS011;7659;51.038;13.786;2022-09-17T05:21:57;0.30;;;0.30;;
15116;SDS011;7659;51.038;13.786;2022-09-17T05:24:23;0.20;;;0.20;;
15116;SDS011;7659;51.038;13.786;2022-09-17T05:26:48;0.20;;;0.20;;
15116;SDS011;7659;51.038;13.786;2022-09-17T05:29:14;0.20;;;0.20;;
15116;SDS011;7659;51.038;13.786;2022-09-17T05:31:39;0.20;;;0.20;;
15116;SDS011;7659;51.038;13.786;2022-09-17T05:34:05;0.20;;;0.20;;
15116;SDS011;7659;51.038;13.786;2022-09-17T05:36:30;0.20;;;0.20;;
15116;SDS011;7659;51.038;13.786;2022-09-17T05:38:56;0.20;;;0.20;;
15116;SDS011;7659;51.038;13.786;2022-09-17T05:41:21;0.20;;;0.20;;
15116;SDS011;7659;51.038;13.786;2022-09-17T05:43:47;0.10;;;0.10;;
15116;SDS011;7659;51.038;13.786;2022-09-17T05:46:13;0.20;;;0.20;;
15116;SDS011;7659;51.038;13.786;2022-09-17T05:48:39;0.20;;;0.20;;
15116;SDS011;7659;51.038;13.786;2022-09-17T05:51:04;0.20;;;0.20;;
15116;SDS011;7659;51.038;13.786;2022-09-17T05:53:30;0.20;;;0.20;;
15116;SDS011;7659;51.038;13.786;2022-09-17T05:55:56;0.20;;;0.20;;
15116;SDS011;7659;51.038;13.786;2022-09-17T05:58:22;0.20;;;0.20;;
15116;SDS011;7659;51.038;13.786;2022-09-17T06:00:48;0.20;;;0.20;;
15116;SDS011;7659;51.038;13.786;2022-09-17T06:03:14;0.20;;;0.20;;
15116;SDS011;7659;51.038;13.786;2022-09-17T06:05:41;0.20;;;0.20;;
15116;SDS011;7659;51.038;13.786;2022-09-17T06:08:07;0.20;;;0.20;;
15116;SDS011;7659;51.038;13.786;2022-09-17T06:10:37;0.20;;;0.20;;
15116;SDS011;7659;51.038;13.786;2022-09-17T06:13:03;0.20;;;0.20;;
15116;SDS011;7659;51.038;13.786;2022-09-17T06:15:29;0.20;;;0.20;;
15116;SDS011;7659;51.038;13.786;2022-09-17T06:17:54;0.20;;;0.20;;
15116;SDS011;7659;51.038;13.786;2022-09-17T06:20:20;0.17;;;0.17;;
15116;SDS011;7659;51.038;13.786;2022-09-17T06:22:46;0.20;;;0.20;;
15116;SDS011;7659;51.038;13.786;2022-09-17T06:25:12;0.20;;;0.20;;
15116;SDS011;7659;51.038;13.786;2022-09-17T06:27:38;0.20;;;0.20;;
15116;SDS011;7659;51.038;13.786;2022-09-17T06:30:04;0.20;;;0.20;;
15116;SDS011;7659;51.038;13.786;2022-09-17T06:32:31;0.10;;;0.10;;
15116;SDS011;7659;51.038;13.786;2022-09-17T06:34:56;0.20;;;0.20;;
15116;SDS011;7659;51.038;13.786;2022-09-17T06:37:26;0.20;;;0.20;;
15116;SDS011;7659;51.038;13.786;2022-09-17T06:39:52;0.20;;;0.20;;
15116;SDS011;7659;51.038;13.786;2022-09-17T06:42:18;0.20;;;0.20;;
15116;SDS011;7659;51.038;13.786;2022-09-17T06:44:44;0.20;;;0.20;;
15116;SDS011;7659;51.038;13.786;2022-09-17T06:47:09;0.20;;;0.20;;
15116;SDS011;7659;51.038;13.786;2022-09-17T06:49:35;0.20;;;0.20;;
15116;SDS011;7659;51.038;13.786;2022-09-17T06:52:02;0.20;;;0.20;;
15116;SDS011;7659;51.038;13.786;2022-09-17T06:54:28;0.10;;;0.10;;
15116;SDS011;7659;51.038;13.786;2022-09-17T06:56:54;0.10;;;0.10;;
15116;SDS011;7659;51.038;13.786;2022-09-17T06:59:19;0.20;;;0.20;;
15116;SDS011;7659;51.038;13.786;2022-09-17T07:01:45;0.20;;;0.20;;
15116;SDS011;7659;51.038;13.786;2022-09-17T07:04:11;0.20;;;0.20;;
15116;SDS011;7659;51.038;13.786;2022-09-17T07:06:37;0.20;;;0.20;;
15116;SDS011;7659;51.038;13.786;2022-09-17T07:09:02;0.20;;;0.20;;
15116;SDS011;7659;51.038;13.786;2022-09-17T07:11:29;0.20;;;0.20;;
15116;SDS011;7659;51.038;13.786;2022-09-17T07:13:55;0.10;;;0.10;;
15116;SDS011;7659;51.038;13.786;2022-09-17T07:16:21;0.20;;;0.20;;
15116;SDS011;7659;51.038;13.786;2022-09-17T07:18:48;0.20;;;0.20;;
15116;SDS011;7659;51.038;13.786;2022-09-17T07:21:13;0.10;;;0.10;;
15116;SDS011;7659;51.038;13.786;2022-09-17T07:23:39;0.20;;;0.20;;
15116;SDS011;7659;51.038;13.786;2022-09-17T07:26:11;0.20;;;0.20;;
15116;SDS011;7659;51.038;13.786;2022-09-17T07:28:38;0.20;;;0.20;;
15116;SDS011;7659;51.038;13.786;2022-09-17T07:31:04;0.20;;;0.20;;
15116;SDS011;7659;51.038;13.786;2022-09-17T07:33:31;0.20;;;0.20;;
15116;SDS011;7659;51.038;13.786;2022-09-17T07:35:59;0.20;;;0.20;;
15116;SDS011;7659;51.038;13.786;2022-09-17T07:38:27;0.20;;;0.20;;
15116;SDS011;7659;51.038;13.786;2022-09-17T07:40:57;0.20;;;0.20;;
15116;SDS011;7659;51.038;13.786;2022-09-17T07:43:24;0.20;;;0.20;;
15116;SDS011;7659;51.038;13.786;2022-09-17T07:45:51;0.30;;;0.30;;
15116;SDS011;7659;51.038;13.786;2022-09-17T07:48:17;0.20;;;0.20;;
15116;SDS011;7659;51.038;13.786;2022-09-17T07:50:44;0.20;;;0.20;;
15116;SDS011;7659;51.038;13.786;2022-09-17T07:53:10;0.20;;;0.20;;
15116;SDS011;7659;51.038;13.786;2022-09-17T07:55:35;0.20;;;0.20;;
15116;SDS011;7659;51.038;13.786;2022-09-17T07:58:01;0.20;;;0.20;;
15116;SDS011;7659;51.038;13.786;2022-09-17T08:00:26;0.20;;;0.20;;
15116;SDS011;7659;51.038;13.786;2022-09-17T08:02:53;0.20;;;0.20;;
15116;SDS011;7659;51.038;13.786;2022-09-17T08:05:19;0.20;;;0.20;;
15116;SDS011;7659;51.038;13.786;2022-09-17T08:07:48;0.20;;;0.20;;
15116;SDS011;7659;51.038;13.786;2022-09-17T08:10:17;0.20;;;0.20;;
15116;SDS011;7659;51.038;13.786;2022-09-17T08:12:50;0.20;;;0.20;;
15116;SDS011;7659;51.038;13.786;2022-09-17T08:15:19;0.20;;;0.20;;
15116;SDS011;7659;51.038;13.786;2022-09-17T08:17:45;0.20;;;0.20;;
15116;SDS011;7659;51.038;13.786;2022-09-17T08:20:11;0.20;;;0.20;;
15116;SDS011;7659;51.038;13.786;2022-09-17T08:22:37;0.20;;;0.20;;
15116;SDS011;7659;51.038;13.786;2022-09-17T08:25:04;0.20;;;0.20;;
15116;SDS011;7659;51.038;13.786;2022-09-17T08:27:30;0.20;;;0.20;;
15116;SDS011;7659;51.038;13.786;2022-09-17T08:29:56;0.20;;;0.20;;
15116;SDS011;7659;51.038;13.786;2022-09-17T08:32:22;0.20;;;0.20;;
15116;SDS011;7659;51.038;13.786;2022-09-17T08:34:48;0.20;;;0.20;;
15116;SDS011;7659;51.038;13.786;2022-09-17T08:37:13;0.20;;;0.20;;
15116;SDS011;7659;51.038;13.786;2022-09-17T08:39:39;0.20;;;0.20;;
15116;SDS011;7659;51.038;13.786;2022-09-17T08:42:09;0.20;;;0.20;;
15116;SDS011;7659;51.038;13.786;2022-09-17T08:44:40;0.20;;;0.20;;
15116;SDS011;7659;51.038;13.786;2022-09-17T09:05:56;0.20;;;0.20;;
15116;SDS011;7659;51.038;13.786;2022-09-17T09:08:27;0.20;;;0.20;;
15116;SDS011;7659;51.038;13.786;2022-09-17T09:10:59;0.20;;;0.20;;
15116;SDS011;7659;51.038;13.786;2022-09-17T09:13:37;0.20;;;0.20;;
15116;SDS011;7659;51.038;13.786;2022-09-17T09:16:27;0.20;;;0.20;;
15116;SDS011;7659;51.038;13.786;2022-09-17T09:18:53;0.20;;;0.20;;
15116;SDS011;7659;51.038;13.786;2022-09-17T09:26:31;0.20;;;0.20;;
15116;SDS011;7659;51.038;13.786;2022-09-17T09:29:17;0.20;;;0.20;;
15116;SDS011;7659;51.038;13.786;2022-09-17T09:31:59;0.20;;;0.20;;
15116;SDS011;7659;51.038;13.786;2022-09-17T09:34:26;0.20;;;0.20;;
15116;SDS011;7659;51.038;13.786;2022-09-17T09:36:54;0.20;;;0.20;;
15116;SDS011;7659;51.038;13.786;2022-09-17T09:39:41;0.20;;;0.20;;
15116;SDS011;7659;51.038;13.786;2022-09-17T09:42:50;0.20;;;0.20;;
15116;SDS011;7659;51.038;13.786;2022-09-17T09:44:58;0.17;;;0.17;;
15116;SDS011;7659;51.038;13.786;2022-09-17T09:53:29;0.20;;;0.20;;
15116;SDS011;7659;51.038;13.786;2022-09-17T09:58:33;0.20;;;0.20;;
15116;SDS011;7659;51.038;13.786;2022-09-17T10:01:00;0.20;;;0.20;;
15116;SDS011;7659;51.038;13.786;2022-09-17T10:08:23;0.20;;;0.20;;
15116;SDS011;7659;51.038;13.786;2022-09-17T10:10:56;0.20;;;0.20;;
15116;SDS011;7659;51.038;13.786;2022-09-17T10:13:26;0.20;;;0.20;;
15116;SDS011;7659;51.038;13.786;2022-09-17T10:15:53;0.20;;;0.20;;
15116;SDS011;7659;51.038;13.786;2022-09-17T10:18:20;0.10;;;0.10;;
15116;SDS011;7659;51.038;13.786;2022-09-17T10:21:07;0.20;;;0.20;;
15116;SDS011;7659;51.038;13.786;2022-09-17T10:23:54;0.20;;;0.20;;
15116;SDS011;7659;51.038;13.786;2022-09-17T10:26:25;0.20;;;0.20;;
15116;SDS011;7659;51.038;13.786;2022-09-17T10:28:52;0.20;;;0.20;;
15116;SDS011;7659;51.038;13.786;2022-09-17T10:31:20;0.20;;;0.20;;
15116;SDS011;7659;51.038;13.786;2022-09-17T10:33:50;0.20;;;0.20;;
15116;SDS011;7659;51.038;13.786;2022-09-17T10:36:33;0.20;;;0.20;;
15116;SDS011;7659;51.038;13.786;2022-09-17T10:39:18;0.20;;;0.20;;
15116;SDS011;7659;51.038;13.786;2022-09-17T10:44:29;0.20;;;0.20;;
15116;SDS011;7659;51.038;13.786;2022-09-17T10:47:20;0.20;;;0.20;;
15116;SDS011;7659;51.038;13.786;2022-09-17T10:49:54;0.20;;;0.20;;
15116;SDS011;7659;51.038;13.786;2022-09-17T10:55:32;0.17;;;0.17;;
15116;SDS011;7659;51.038;13.786;2022-09-17T11:09:13;0.20;;;0.20;;
15116;SDS011;7659;51.038;13.786;2022-09-17T11:14:24;0.20;;;0.20;;
15116;SDS011;7659;51.038;13.786;2022-09-17T11:17:01;0.30;;;0.30;;
15116;SDS011;7659;51.038;13.786;2022-09-17T11:30:18;0.20;;;0.20;;
15116;SDS011;7659;51.038;13.786;2022-09-17T11:35:27;0.20;;;0.20;;
15116;SDS011;7659;51.038;13.786;2022-09-17T11:43:12;0.27;;;0.27;;
15116;SDS011;7659;51.038;13.786;2022-09-17T11:45:40;0.20;;;0.20;;
15116;SDS011;7659;51.038;13.786;2022-09-17T11:48:16;0.20;;;0.20;;
15116;SDS011;7659;51.038;13.786;2022-09-17T11:50:55;0.30;;;0.30;;
15116;SDS011;7659;51.038;13.786;2022-09-17T11:55:55;0.20;;;0.20;;
15116;SDS011;7659;51.038;13.786;2022-09-17T12:01:18;0.20;;;0.20;;
15116;SDS011;7659;51.038;13.786;2022-09-17T12:04:04;0.10;;;0.10;;
15116;SDS011;7659;51.038;13.786;2022-09-17T12:06:43;0.20;;;0.20;;
15116;SDS011;7659;51.038;13.786;2022-09-17T12:09:18;0.20;;;0.20;;
15116;SDS011;7659;51.038;13.786;2022-09-17T12:11:48;0.30;;;0.30;;
15116;SDS011;7659;51.038;13.786;2022-09-17T12:14:25;0.10;;;0.10;;
15116;SDS011;7659;51.038;13.786;2022-09-17T12:16:57;0.27;;;0.27;;
15116;SDS011;7659;51.038;13.786;2022-09-17T12:19:32;0.20;;;0.20;;
15116;SDS011;7659;51.038;13.786;2022-09-17T12:22:00;0.10;;;0.10;;
15116;SDS011;7659;51.038;13.786;2022-09-17T12:24:30;0.20;;;0.20;;
15116;SDS011;7659;51.038;13.786;2022-09-17T12:27:07;0.30;;;0.30;;
15116;SDS011;7659;51.038;13.786;2022-09-17T12:30:10;0.20;;;0.20;;
15116;SDS011;7659;51.038;13.786;2022-09-17T12:32:51;0.20;;;0.20;;
15116;SDS011;7659;51.038;13.786;2022-09-17T12:40:42;0.20;;;0.20;;
15116;SDS011;7659;51.038;13.786;2022-09-17T12:59:30;0.30;;;0.30;;
15116;SDS011;7659;51.038;13.786;2022-09-17T13:05:04;0.70;;;0.70;;
15116;SDS011;7659;51.038;13.786;2022-09-17T13:07:46;1.10;;;1.10;;
15116;SDS011;7659;51.038;13.786;2022-09-17T13:19:03;0.30;;;0.30;;
15116;SDS011;7659;51.038;13.786;2022-09-17T13:21:39;0.65;;;0.65;;
15116;SDS011;7659;51.038;13.786;2022-09-17T13:24:15;0.20;;;0.20;;
15116;SDS011;7659;51.038;13.786;2022-09-17T13:26:41;0.63;;;0.63;;
15116;SDS011;7659;51.038;13.786;2022-09-17T13:29:10;0.50;;;0.50;;
15116;SDS011;7659;51.038;13.786;2022-09-17T13:34:48;0.40;;;0.40;;
15116;SDS011;7659;51.038;13.786;2022-09-17T13:36:54;0.90;;;0.90;;
15116;SDS011;7659;51.038;13.786;2022-09-17T13:44:43;0.40;;;0.40;;
15116;SDS011;7659;51.038;13.786;2022-09-17T13:47:22;0.50;;;0.50;;
15116;SDS011;7659;51.038;13.786;2022-09-17T13:49:51;0.47;;;0.47;;
15116;SDS011;7659;51.038;13.786;2022-09-17T13:52:36;0.50;;;0.50;;
15116;SDS011;7659;51.038;13.786;2022-09-17T13:58:42;0.60;;;0.60;;
15116;SDS011;7659;51.038;13.786;2022-09-17T14:00:57;0.60;;;0.60;;
15116;SDS011;7659;51.038;13.786;2022-09-17T14:05:55;0.80;;;0.80;;
15116;SDS011;7659;51.038;13.786;2022-09-17T14:13:55;2.38;;;2.28;;
15116;SDS011;7659;51.038;13.786;2022-09-17T14:19:53;1.67;;;1.67;;
15116;SDS011;7659;51.038;13.786;2022-09-17T14:37:55;0.40;;;0.40;;
15116;SDS011;7659;51.038;13.786;2022-09-17T14:40:23;0.50;;;0.50;;
15116;SDS011;7659;51.038;13.786;2022-09-17T14:42:51;0.50;;;0.50;;
15116;SDS011;7659;51.038;13.786;2022-09-17T14:45:39;0.50;;;0.50;;
15116;SDS011;7659;51.038;13.786;2022-09-17T14:53:46;0.43;;;0.43;;
15116;SDS011;7659;51.038;13.786;2022-09-17T14:56:14;0.50;;;0.50;;
15116;SDS011;7659;51.038;13.786;2022-09-17T14:58:42;0.40;;;0.40;;
15116;SDS011;7659;51.038;13.786;2022-09-17T15:01:27;0.40;;;0.40;;
15116;SDS011;7659;51.038;13.786;2022-09-17T15:07:07;0.30;;;0.30;;
15116;SDS011;7659;51.038;13.786;2022-09-17T15:09:34;0.40;;;0.40;;
15116;SDS011;7659;51.038;13.786;2022-09-17T15:11:59;0.30;;;0.30;;
15116;SDS011;7659;51.038;13.786;2022-09-17T15:14:29;0.60;;;0.60;;
15116;SDS011;7659;51.038;13.786;2022-09-17T15:16:56;0.30;;;0.30;;
15116;SDS011;7659;51.038;13.786;2022-09-17T15:19:28;0.30;;;0.30;;
15116;SDS011;7659;51.038;13.786;2022-09-17T15:21:57;0.40;;;0.40;;
15116;SDS011;7659;51.038;13.786;2022-09-17T15:24:40;0.50;;;0.50;;
15116;SDS011;7659;51.038;13.786;2022-09-17T15:27:24;0.70;;;0.70;;
15116;SDS011;7659;51.038;13.786;2022-09-17T15:29:55;0.30;;;0.30;;
15116;SDS011;7659;51.038;13.786;2022-09-17T15:32:23;0.30;;;0.30;;
15116;SDS011;7659;51.038;13.786;2022-09-17T15:37:43;0.30;;;0.30;;
15116;SDS011;7659;51.038;13.786;2022-09-17T15:43:02;0.10;;;0.10;;
15116;SDS011;7659;51.038;13.786;2022-09-17T15:45:29;0.22;;;0.22;;
15116;SDS011;7659;51.038;13.786;2022-09-17T15:48:03;0.20;;;0.20;;
15116;SDS011;7659;51.038;13.786;2022-09-17T15:50:32;0.20;;;0.20;;
15116;SDS011;7659;51.038;13.786;2022-09-17T15:55:39;0.30;;;0.30;;
15116;SDS011;7659;51.038;13.786;2022-09-17T15:58:19;0.90;;;0.90;;
15116;SDS011;7659;51.038;13.786;2022-09-17T16:00:50;1.40;;;1.40;;
15116;SDS011;7659;51.038;13.786;2022-09-17T16:08:44;1.23;;;1.23;;
15116;SDS011;7659;51.038;13.786;2022-09-17T16:11:14;0.30;;;0.30;;
15116;SDS011;7659;51.038;13.786;2022-09-17T16:13:41;0.20;;;0.20;;
15116;SDS011;7659;51.038;13.786;2022-09-17T16:16:07;0.20;;;0.20;;
15116;SDS011;7659;51.038;13.786;2022-09-17T16:18:39;0.20;;;0.20;;
15116;SDS011;7659;51.038;13.786;2022-09-17T16:21:05;0.20;;;0.20;;
15116;SDS011;7659;51.038;13.786;2022-09-17T16:23:30;0.30;;;0.30;;
15116;SDS011;7659;51.038;13.786;2022-09-17T16:25:56;0.20;;;0.20;;
15116;SDS011;7659;51.038;13.786;2022-09-17T16:28:22;0.30;;;0.30;;
15116;SDS011;7659;51.038;13.786;2022-09-17T16:30:48;0.20;;;0.20;;
15116;SDS011;7659;51.038;13.786;2022-09-17T16:33:14;0.20;;;0.20;;
15116;SDS011;7659;51.038;13.786;2022-09-17T16:35:41;0.30;;;0.30;;
15116;SDS011;7659;51.038;13.786;2022-09-17T16:38:07;0.20;;;0.20;;
15116;SDS011;7659;51.038;13.786;2022-09-17T16:40:33;0.30;;;0.30;;
15116;SDS011;7659;51.038;13.786;2022-09-17T16:43:03;0.40;;;0.40;;
15116;SDS011;7659;51.038;13.786;2022-09-17T16:45:29;0.30;;;0.30;;
15116;SDS011;7659;51.038;13.786;2022-09-17T16:47:55;0.20;;;0.20;;
15116;SDS011;7659;51.038;13.786;2022-09-17T16:50:21;0.27;;;0.27;;
15116;SDS011;7659;51.038;13.786;2022-09-17T16:52:46;0.30;;;0.30;;
15116;SDS011;7659;51.038;13.786;2022-09-17T16:55:13;0.20;;;0.20;;
15116;SDS011;7659;51.038;13.786;2022-09-17T16:57:39;0.30;;;0.30;;
15116;SDS011;7659;51.038;13.786;2022-09-17T17:00:05;0.30;;;0.30;;
15116;SDS011;7659;51.038;13.786;2022-09-17T17:02:35;0.20;;;0.20;;
15116;SDS011;7659;51.038;13.786;2022-09-17T17:05:00;0.20;;;0.20;;
15116;SDS011;7659;51.038;13.786;2022-09-17T17:07:26;0.30;;;0.30;;
15116;SDS011;7659;51.038;13.786;2022-09-17T17:09:51;0.30;;;0.30;;
15116;SDS011;7659;51.038;13.786;2022-09-17T17:12:17;0.30;;;0.30;;
15116;SDS011;7659;51.038;13.786;2022-09-17T17:14:43;0.20;;;0.20;;
15116;SDS011;7659;51.038;13.786;2022-09-17T17:17:14;0.27;;;0.27;;
15116;SDS011;7659;51.038;13.786;2022-09-17T17:19:41;0.30;;;0.30;;
15116;SDS011;7659;51.038;13.786;2022-09-17T17:22:07;0.20;;;0.20;;
15116;SDS011;7659;51.038;13.786;2022-09-17T17:24:33;0.20;;;0.20;;
15116;SDS011;7659;51.038;13.786;2022-09-17T17:26:58;0.30;;;0.30;;
15116;SDS011;7659;51.038;13.786;2022-09-17T17:29:24;0.20;;;0.20;;
15116;SDS011;7659;51.038;13.786;2022-09-17T17:31:50;0.20;;;0.20;;
15116;SDS011;7659;51.038;13.786;2022-09-17T17:34:15;0.20;;;0.20;;
15116;SDS011;7659;51.038;13.786;2022-09-17T17:36:41;0.10;;;0.10;;
15116;SDS011;7659;51.038;13.786;2022-09-17T17:39:07;0.20;;;0.20;;
15116;SDS011;7659;51.038;13.786;2022-09-17T17:41:33;0.20;;;0.20;;
15116;SDS011;7659;51.038;13.786;2022-09-17T17:43:59;0.10;;;0.10;;
15116;SDS011;7659;51.038;13.786;2022-09-17T17:46:25;0.20;;;0.20;;
15116;SDS011;7659;51.038;13.786;2022-09-17T17:48:51;0.20;;;0.20;;
15116;SDS011;7659;51.038;13.786;2022-09-17T17:51:17;0.20;;;0.20;;
15116;SDS011;7659;51.038;13.786;2022-09-17T17:53:43;0.20;;;0.20;;
15116;SDS011;7659;51.038;13.786;2022-09-17T17:56:09;0.30;;;0.30;;
15116;SDS011;7659;51.038;13.786;2022-09-17T17:58:36;0.27;;;0.27;;
15116;SDS011;7659;51.038;13.786;2022-09-17T18:01:13;0.20;;;0.20;;
15116;SDS011;7659;51.038;13.786;2022-09-17T18:03:40;0.20;;;0.20;;
15116;SDS011;7659;51.038;13.786;2022-09-17T18:06:06;0.30;;;0.30;;
15116;SDS011;7659;51.038;13.786;2022-09-17T18:08:34;0.20;;;0.20;;
15116;SDS011;7659;51.038;13.786;2022-09-17T18:11:01;0.30;;;0.30;;
15116;SDS011;7659;51.038;13.786;2022-09-17T18:13:29;0.20;;;0.20;;
15116;SDS011;7659;51.038;13.786;2022-09-17T18:15:56;0.20;;;0.20;;
15116;SDS011;7659;51.038;13.786;2022-09-17T18:18:23;0.20;;;0.20;;
15116;SDS011;7659;51.038;13.786;2022-09-17T18:20:58;0.27;;;0.27;;
15116;SDS011;7659;51.038;13.786;2022-09-17T18:23:24;0.20;;;0.20;;
15116;SDS011;7659;51.038;13.786;2022-09-17T18:25:56;0.30;;;0.30;;
15116;SDS011;7659;51.038;13.786;2022-09-17T18:28:24;0.20;;;0.20;;
15116;SDS011;7659;51.038;13.786;2022-09-17T18:30:51;0.20;;;0.20;;
15116;SDS011;7659;51.038;13.786;2022-09-17T18:33:25;0.20;;;0.20;;
15116;SDS011;7659;51.038;13.786;2022-09-17T18:35:51;0.13;;;0.13;;
15116;SDS011;7659;51.038;13.786;2022-09-17T18:38:24;0.30;;;0.30;;
15116;SDS011;7659;51.038;13.786;2022-09-17T18:40:50;0.20;;;0.20;;
15116;SDS011;7659;51.038;13.786;2022-09-17T18:43:16;0.17;;;0.17;;